Time;durP1;ratioP1;P1;durP2;ratioP2;P2;SDS_P1;SDS_P2;PMS_P1;PMS_P2;Temp;Humidity;BMP_temperature;BMP_pressure;BME280_temperature;BME280_humidity;BME280_pressure;Samples;Min_cycle;Max_cycle;Signal;HPM_P1;HPM_P2
2023/04/26 00:00:10;;;;;;;7.53;4.40;;;;;;;;;;5018811;28;20194;-43
2023/04/26 00:02:36;;;;;;;11.57;5.22;;;;;;;;;;5014628;28;20173;-43
2023/04/26 00:05:02;;;;;;;10.60;4.30;;;;;;;;;;5020986;28;20172;-43
2023/04/26 00:07:29;;;;;;;5.50;4.10;;;;;;;;;;5016782;28;20891;-43
2023/04/26 00:09:55;;;;;;;6.40;4.57;;;;;;;;;;5028662;28;20175;-44
2023/04/26 00:12:21;;;;;;;13.98;4.35;;;;;;;;;;5020233;28;20172;-43
2023/04/26 00:14:47;;;;;;;9.32;4.78;;;;;;;;;;5024211;28;20213;-43
2023/04/26 00:17:13;;;;;;;13.57;5.70;;;;;;;;;;5015919;28;20574;-43
2023/04/26 00:19:39;;;;;;;5.90;3.43;;;;;;;;;;5011073;28;20451;-42
2023/04/26 00:22:05;;;;;;;7.10;4.60;;;;;;;;;;5024659;28;20501;-43
2023/04/26 00:24:31;;;;;;;13.77;5.17;;;;;;;;;;5023225;28;20282;-43
2023/04/26 00:26:59;;;;;;;10.65;5.05;;;;;;;;;;5022732;28;20874;-43
2023/04/26 00:29:25;;;;;;;6.80;4.80;;;;;;;;;;5019483;28;20196;-42
2023/04/26 00:31:51;;;;;;;18.60;6.60;;;;;;;;;;5018574;28;20748;-43
2023/04/26 00:34:17;;;;;;;8.60;4.73;;;;;;;;;;5013742;28;20431;-43
2023/04/26 00:36:43;;;;;;;7.53;4.80;;;;;;;;;;5029065;28;20421;-43
2023/04/26 00:39:09;;;;;;;5.55;4.35;;;;;;;;;;5021579;28;20434;-45
2023/04/26 00:41:35;;;;;;;7.88;4.72;;;;;;;;;;5018868;28;20185;-43
2023/04/26 00:44:01;;;;;;;5.78;4.22;;;;;;;;;;5023637;28;20226;-44
2023/04/26 00:46:28;;;;;;;11.93;4.93;;;;;;;;;;5015841;28;20212;-43
2023/04/26 00:48:54;;;;;;;7.80;4.43;;;;;;;;;;5015528;28;20430;-43
2023/04/26 00:51:20;;;;;;;6.80;4.28;;;;;;;;;;5010173;28;20179;-44
2023/04/26 00:53:47;;;;;;;6.17;3.77;;;;;;;;;;5021547;28;20561;-43
2023/04/26 00:56:14;;;;;;;9.65;4.20;;;;;;;;;;5018949;28;20548;-43
2023/04/26 00:58:40;;;;;;;11.85;4.75;;;;;;;;;;5013879;28;20266;-44
2023/04/26 01:01:06;;;;;;;6.37;4.10;;;;;;;;;;5020347;28;20175;-43
2023/04/26 01:03:32;;;;;;;7.68;4.65;;;;;;;;;;5013215;28;20522;-43
2023/04/26 01:05:58;;;;;;;6.03;4.43;;;;;;;;;;5019318;28;20294;-43
2023/04/26 01:08:24;;;;;;;8.07;4.10;;;;;;;;;;5018633;28;20443;-43
2023/04/26 01:10:51;;;;;;;14.48;4.65;;;;;;;;;;5022182;28;20669;-44
2023/04/26 01:13:17;;;;;;;16.10;5.47;;;;;;;;;;5016504;28;20215;-44
2023/04/26 01:15:46;;;;;;;10.57;5.10;;;;;;;;;;5010746;28;20220;-43
2023/04/26 01:18:13;;;;;;;13.48;5.25;;;;;;;;;;5014458;28;20219;-43
2023/04/26 01:20:40;;;;;;;11.05;5.97;;;;;;;;;;5015789;28;20168;-43
2023/04/26 01:23:07;;;;;;;5.82;4.60;;;;;;;;;;5023755;28;20172;-43
2023/04/26 01:25:33;;;;;;;13.85;5.45;;;;;;;;;;5018209;28;20255;-43
2023/04/26 01:27:59;;;;;;;7.30;4.72;;;;;;;;;;5018618;28;20247;-43
2023/04/26 01:30:25;;;;;;;6.73;4.33;;;;;;;;;;5013750;28;20538;-43
2023/04/26 01:32:51;;;;;;;9.20;5.00;;;;;;;;;;5015477;28;20510;-43
2023/04/26 01:35:17;;;;;;;10.95;5.75;;;;;;;;;;5017516;28;20191;-43
2023/04/26 01:37:43;;;;;;;10.70;5.07;;;;;;;;;;5017600;28;20200;-43
2023/04/26 01:40:10;;;;;;;8.23;5.03;;;;;;;;;;5021979;28;20240;-43
2023/04/26 01:42:36;;;;;;;12.82;4.97;;;;;;;;;;5016717;28;20407;-43
2023/04/26 01:45:02;;;;;;;14.03;5.50;;;;;;;;;;5015900;28;20172;-45
2023/04/26 01:47:28;;;;;;;8.57;4.93;;;;;;;;;;5010759;28;20475;-43
2023/04/26 01:49:54;;;;;;;8.87;4.57;;;;;;;;;;5019724;28;20635;-43
2023/04/26 01:52:20;;;;;;;12.32;5.45;;;;;;;;;;5019597;28;20810;-43
2023/04/26 01:54:46;;;;;;;12.65;5.60;;;;;;;;;;5014216;28;20531;-45
2023/04/26 01:57:12;;;;;;;13.37;5.20;;;;;;;;;;5017796;28;20169;-43
2023/04/26 01:59:38;;;;;;;15.90;4.50;;;;;;;;;;5019584;28;20828;-43
2023/04/26 02:02:04;;;;;;;11.60;4.93;;;;;;;;;;5015862;28;20418;-42
2023/04/26 02:04:30;;;;;;;6.87;5.10;;;;;;;;;;5019991;28;20431;-43
2023/04/26 02:06:56;;;;;;;9.90;5.43;;;;;;;;;;5026340;28;20498;-43
2023/04/26 02:09:22;;;;;;;10.65;5.18;;;;;;;;;;5020954;28;20195;-43
2023/04/26 02:11:48;;;;;;;11.67;4.80;;;;;;;;;;5014568;28;20649;-43
2023/04/26 02:14:14;;;;;;;10.40;4.60;;;;;;;;;;5018233;28;20418;-43
2023/04/26 02:16:40;;;;;;;8.30;4.85;;;;;;;;;;5017086;28;20484;-43
2023/04/26 02:19:09;;;;;;;10.38;6.15;;;;;;;;;;5024033;28;20296;-43
2023/04/26 02:21:50;;;;;;;8.70;5.63;;;;;;;;;;5020678;28;20559;-43
2023/04/26 02:24:16;;;;;;;8.18;4.65;;;;;;;;;;5017040;28;20180;-43
2023/04/26 02:26:42;;;;;;;11.30;5.07;;;;;;;;;;5019148;28;20211;-43
2023/04/26 02:29:08;;;;;;;8.27;4.73;;;;;;;;;;5011641;28;20517;-43
2023/04/26 02:31:34;;;;;;;8.67;4.20;;;;;;;;;;5025574;28;20418;-43
2023/04/26 02:34:00;;;;;;;15.60;6.20;;;;;;;;;;5021275;28;20433;-45
2023/04/26 02:36:26;;;;;;;11.43;5.20;;;;;;;;;;5019150;28;20439;-43
2023/04/26 02:38:52;;;;;;;21.02;5.95;;;;;;;;;;5022986;28;20279;-45
2023/04/26 02:41:18;;;;;;;8.40;5.57;;;;;;;;;;5023380;28;20259;-43
2023/04/26 02:43:44;;;;;;;8.20;5.97;;;;;;;;;;5015806;28;20420;-43
2023/04/26 02:46:10;;;;;;;13.73;5.50;;;;;;;;;;5021753;28;20459;-43
2023/04/26 02:48:36;;;;;;;10.90;5.80;;;;;;;;;;5030437;28;20427;-43
2023/04/26 02:51:01;;;;;;;10.60;4.37;;;;;;;;;;5034622;28;20537;-43
2023/04/26 02:53:27;;;;;;;7.40;5.20;;;;;;;;;;5034624;28;20392;-42
2023/04/26 02:55:53;;;;;;;7.23;5.23;;;;;;;;;;5034760;28;20462;-43
2023/04/26 02:58:20;;;;;;;15.33;7.13;;;;;;;;;;5034403;28;20421;-43
2023/04/26 03:00:49;;;;;;;8.52;5.07;;;;;;;;;;5034679;28;20813;-44
2023/04/26 03:03:15;;;;;;;10.65;6.40;;;;;;;;;;5034627;28;20170;-43
2023/04/26 03:05:41;;;;;;;17.60;8.63;;;;;;;;;;5023428;28;20222;-43
2023/04/26 03:08:07;;;;;;;20.50;10.00;;;;;;;;;;5013464;28;20585;-43
2023/04/26 03:10:33;;;;;;;16.73;7.47;;;;;;;;;;5013466;28;20252;-43
2023/04/26 03:12:59;;;;;;;16.90;12.07;;;;;;;;;;5012758;28;20395;-43
2023/04/26 03:15:25;;;;;;;11.63;6.77;;;;;;;;;;5019993;28;20440;-43
2023/04/26 03:17:51;;;;;;;27.83;8.63;;;;;;;;;;5015299;28;20441;-43
2023/04/26 03:20:17;;;;;;;13.93;6.70;;;;;;;;;;5019523;28;20539;-43
2023/04/26 03:22:43;;;;;;;8.38;5.88;;;;;;;;;;5022528;28;20406;-43
2023/04/26 03:25:09;;;;;;;12.47;6.83;;;;;;;;;;5017696;28;20213;-43
2023/04/26 03:27:36;;;;;;;8.52;6.05;;;;;;;;;;5014463;28;20539;-43
2023/04/26 03:30:03;;;;;;;15.80;6.47;;;;;;;;;;5019928;28;20255;-42
2023/04/26 03:32:30;;;;;;;10.68;6.03;;;;;;;;;;5018800;28;20403;-43
2023/04/26 03:34:56;;;;;;;11.98;6.63;;;;;;;;;;5023580;28;20309;-43
2023/04/26 03:37:21;;;;;;;12.17;6.73;;;;;;;;;;5025563;28;20185;-43
2023/04/26 03:39:49;;;;;;;10.20;6.03;;;;;;;;;;5019932;28;20414;-43
2023/04/26 03:42:15;;;;;;;12.77;6.47;;;;;;;;;;5015387;28;20418;-43
2023/04/26 03:44:41;;;;;;;8.13;5.73;;;;;;;;;;5010424;28;20188;-44
2023/04/26 03:47:07;;;;;;;12.83;6.33;;;;;;;;;;5024402;28;20466;-43
2023/04/26 03:49:33;;;;;;;16.80;7.13;;;;;;;;;;5021596;28;20422;-43
2023/04/26 03:51:59;;;;;;;16.60;7.37;;;;;;;;;;5024009;28;20429;-43
2023/04/26 03:54:25;;;;;;;9.57;6.23;;;;;;;;;;5018856;28;20452;-43
2023/04/26 03:56:51;;;;;;;14.33;7.30;;;;;;;;;;5018282;28;20421;-43
2023/04/26 03:59:17;;;;;;;9.80;6.77;;;;;;;;;;5012282;28;20981;-43
2023/04/26 04:01:43;;;;;;;10.60;6.22;;;;;;;;;;5023546;28;20419;-42
2023/04/26 04:04:09;;;;;;;10.03;6.53;;;;;;;;;;5020742;28;20183;-43
2023/04/26 04:06:35;;;;;;;12.98;6.75;;;;;;;;;;5018148;28;20459;-42
2023/04/26 04:09:01;;;;;;;12.52;7.25;;;;;;;;;;5026928;28;20476;-42
2023/04/26 04:11:27;;;;;;;9.90;7.00;;;;;;;;;;5016735;28;20177;-42
2023/04/26 04:13:53;;;;;;;17.13;7.80;;;;;;;;;;5014729;28;20418;-42
2023/04/26 04:16:19;;;;;;;10.50;6.70;;;;;;;;;;5020707;28;20426;-42
2023/04/26 04:18:45;;;;;;;16.93;6.87;;;;;;;;;;5024045;28;20950;-42
2023/04/26 04:21:11;;;;;;;13.57;6.53;;;;;;;;;;5017101;28;20502;-42
2023/04/26 04:23:37;;;;;;;15.63;7.10;;;;;;;;;;5013718;28;20649;-42
2023/04/26 04:26:03;;;;;;;15.23;6.80;;;;;;;;;;5021787;28;20485;-42
2023/04/26 04:28:29;;;;;;;12.25;7.13;;;;;;;;;;5020987;28;20194;-42
2023/04/26 04:30:55;;;;;;;15.63;6.97;;;;;;;;;;5022504;28;20181;-42
2023/04/26 04:33:21;;;;;;;13.32;6.90;;;;;;;;;;5021948;28;20215;-42
2023/04/26 04:35:47;;;;;;;17.73;9.90;;;;;;;;;;5011842;28;20608;-43
2023/04/26 04:38:13;;;;;;;13.60;8.90;;;;;;;;;;5013615;28;20818;-43
2023/04/26 04:40:40;;;;;;;10.47;6.60;;;;;;;;;;5009890;28;20455;-43
2023/04/26 04:43:05;;;;;;;13.00;7.03;;;;;;;;;;5023565;28;20411;-43
2023/04/26 04:45:31;;;;;;;13.17;6.63;;;;;;;;;;5021401;28;20198;-42
2023/04/26 04:47:57;;;;;;;14.13;7.32;;;;;;;;;;5022431;28;20415;-42
2023/04/26 04:50:23;;;;;;;14.70;6.40;;;;;;;;;;5018083;28;20548;-42
2023/04/26 04:52:49;;;;;;;15.90;7.60;;;;;;;;;;5017601;28;20813;-43
2023/04/26 04:55:15;;;;;;;15.43;7.53;;;;;;;;;;5011115;28;20410;-42
2023/04/26 04:57:41;;;;;;;16.03;8.37;;;;;;;;;;5022923;28;20442;-42
2023/04/26 05:00:11;;;;;;;15.87;6.70;;;;;;;;;;5019632;28;20414;-43
2023/04/26 05:02:37;;;;;;;15.23;7.13;;;;;;;;;;5016434;28;20416;-43
2023/04/26 05:05:04;;;;;;;15.25;9.32;;;;;;;;;;5021307;28;20174;-44
2023/04/26 05:07:33;;;;;;;19.88;9.27;;;;;;;;;;5015020;28;20208;-42
2023/04/26 05:09:59;;;;;;;14.75;8.38;;;;;;;;;;5013882;28;20180;-43
2023/04/26 05:12:25;;;;;;;15.70;8.05;;;;;;;;;;5019766;28;20658;-42
2023/04/26 05:14:51;;;;;;;15.90;7.83;;;;;;;;;;5030361;28;20175;-42
2023/04/26 05:17:17;;;;;;;10.63;7.07;;;;;;;;;;5031829;28;20404;-42
2023/04/26 05:19:43;;;;;;;10.97;8.27;;;;;;;;;;5031866;28;20431;-43
2023/04/26 05:22:09;;;;;;;13.93;8.47;;;;;;;;;;5031885;28;20494;-43
2023/04/26 05:24:35;;;;;;;25.23;9.33;;;;;;;;;;5032091;28;20410;-43
2023/04/26 05:27:01;;;;;;;24.33;9.97;;;;;;;;;;5031850;28;20459;-43
2023/04/26 05:29:30;;;;;;;12.67;8.90;;;;;;;;;;5031792;28;20732;-42
2023/04/26 05:31:56;;;;;;;19.73;9.98;;;;;;;;;;5031800;28;20460;-42
2023/04/26 05:34:23;;;;;;;16.10;7.50;;;;;;;;;;5031380;28;20167;-42
2023/04/26 05:36:50;;;;;;;15.15;8.73;;;;;;;;;;5009025;28;20454;-42
2023/04/26 05:39:16;;;;;;;15.35;7.80;;;;;;;;;;5011010;28;20550;-43
2023/04/26 05:41:42;;;;;;;16.95;8.18;;;;;;;;;;5012128;28;20172;-42
2023/04/26 05:44:08;;;;;;;19.10;8.15;;;;;;;;;;5012155;28;20173;-43
2023/04/26 05:46:34;;;;;;;15.67;8.90;;;;;;;;;;5011937;28;20200;-43
2023/04/26 05:49:00;;;;;;;23.70;9.57;;;;;;;;;;5011776;28;20415;-43
2023/04/26 05:51:26;;;;;;;17.80;8.87;;;;;;;;;;5012043;28;20395;-43
2023/04/26 05:53:52;;;;;;;25.25;10.30;;;;;;;;;;5012013;28;20918;-42
2023/04/26 05:56:19;;;;;;;18.70;9.63;;;;;;;;;;5012007;28;20184;-43
2023/04/26 05:58:46;;;;;;;15.23;9.80;;;;;;;;;;5011579;28;20258;-42
2023/04/26 06:01:13;;;;;;;24.25;10.57;;;;;;;;;;5011881;28;20203;-42
2023/04/26 06:03:39;;;;;;;30.27;11.50;;;;;;;;;;5011927;28;20171;-42
2023/04/26 06:06:07;;;;;;;21.77;11.07;;;;;;;;;;5010017;28;20204;-42
2023/04/26 06:08:33;;;;;;;18.60;9.90;;;;;;;;;;5011551;28;20423;-42
2023/04/26 06:10:59;;;;;;;17.95;10.20;;;;;;;;;;5011821;28;20255;-42
2023/04/26 06:13:25;;;;;;;19.67;10.13;;;;;;;;;;5011388;28;20255;-43
2023/04/26 06:15:52;;;;;;;20.15;11.93;;;;;;;;;;5010768;28;20443;-42
2023/04/26 06:18:18;;;;;;;22.70;12.18;;;;;;;;;;5011018;28;20214;-42
2023/04/26 06:20:45;;;;;;;24.93;10.43;;;;;;;;;;5011183;28;20263;-42
2023/04/26 06:23:11;;;;;;;24.80;11.82;;;;;;;;;;5011449;28;20410;-43
2023/04/26 06:25:42;;;;;;;19.63;11.30;;;;;;;;;;5011110;28;20197;-43
2023/04/26 06:28:08;;;;;;;21.95;11.13;;;;;;;;;;5010901;28;20427;-42
2023/04/26 06:30:36;;;;;;;22.03;10.17;;;;;;;;;;5011563;28;20168;-42
2023/04/26 06:33:02;;;;;;;22.42;11.55;;;;;;;;;;5009803;28;20403;-43
2023/04/26 06:35:27;;;;;;;21.20;11.00;;;;;;;;;;5016800;28;20172;-43
2023/04/26 06:37:53;;;;;;;16.80;9.70;;;;;;;;;;5018044;28;21049;-42
2023/04/26 06:40:20;;;;;;;22.27;10.20;;;;;;;;;;5021511;28;20755;-42
2023/04/26 06:42:47;;;;;;;15.23;9.77;;;;;;;;;;5018946;28;20418;-42
2023/04/26 06:45:13;;;;;;;17.70;8.73;;;;;;;;;;5017360;28;20175;-42
2023/04/26 06:47:39;;;;;;;16.93;9.20;;;;;;;;;;5014374;28;20482;-43
2023/04/26 06:50:05;;;;;;;18.65;10.23;;;;;;;;;;5011853;28;20946;-43
2023/04/26 06:52:31;;;;;;;17.02;9.25;;;;;;;;;;5020009;28;20243;-43
2023/04/26 06:55:00;;;;;;;21.70;10.90;;;;;;;;;;5021842;28;20180;-45
2023/04/26 06:57:27;;;;;;;16.63;8.50;;;;;;;;;;5019501;28;20412;-42
2023/04/26 06:59:53;;;;;;;17.20;10.27;;;;;;;;;;5007812;28;20429;-45
2023/04/26 07:02:22;;;;;;;16.70;6.43;;;;;;;;;;5015056;28;20427;-43
2023/04/26 07:04:48;;;;;;;14.20;7.03;;;;;;;;;;5016093;28;20500;-42
2023/04/26 07:07:15;;;;;;;6.50;4.50;;;;;;;;;;5025284;28;20468;-43
2023/04/26 07:09:42;;;;;;;8.97;5.80;;;;;;;;;;5021724;28;20485;-44
2023/04/26 07:12:08;;;;;;;9.20;5.27;;;;;;;;;;5022393;28;20455;-43
2023/04/26 07:14:34;;;;;;;12.30;6.20;;;;;;;;;;5027079;28;20617;-42
2023/04/26 07:17:00;;;;;;;18.03;5.23;;;;;;;;;;5016457;28;20842;-42
2023/04/26 07:19:26;;;;;;;10.93;5.17;;;;;;;;;;5013230;28;20538;-42
2023/04/26 07:21:52;;;;;;;7.47;5.20;;;;;;;;;;5021898;28;20429;-42
2023/04/26 07:24:18;;;;;;;14.03;4.70;;;;;;;;;;5022049;28;20507;-43
2023/04/26 07:26:44;;;;;;;11.23;6.50;;;;;;;;;;5016689;28;20954;-43
2023/04/26 07:29:10;;;;;;;8.27;3.90;;;;;;;;;;5025916;28;20431;-42
2023/04/26 07:31:36;;;;;;;15.00;4.50;;;;;;;;;;5018745;28;20418;-42
2023/04/26 07:34:02;;;;;;;16.50;4.63;;;;;;;;;;5015556;28;20419;-43
2023/04/26 07:36:28;;;;;;;11.50;4.20;;;;;;;;;;5021301;28;20427;-42
2023/04/26 07:38:56;;;;;;;16.60;5.07;;;;;;;;;;5017262;28;20490;-42
2023/04/26 07:41:22;;;;;;;6.23;4.43;;;;;;;;;;5021372;28;20856;-42
2023/04/26 07:43:48;;;;;;;15.40;5.57;;;;;;;;;;5013862;28;20494;-42
2023/04/26 07:46:14;;;;;;;9.10;4.90;;;;;;;;;;5021583;28;20462;-42
2023/04/26 07:48:40;;;;;;;5.80;4.17;;;;;;;;;;5020826;28;20427;-42
2023/04/26 07:51:09;;;;;;;7.50;5.20;;;;;;;;;;5025399;28;20405;-42
2023/04/26 07:53:35;;;;;;;9.20;5.57;;;;;;;;;;5020480;28;20423;-43
2023/04/26 07:56:03;;;;;;;11.43;4.70;;;;;;;;;;5020909;28;20511;-43
2023/04/26 07:58:31;;;;;;;8.70;4.53;;;;;;;;;;5028667;28;20449;-43
2023/04/26 08:00:59;;;;;;;7.27;4.57;;;;;;;;;;5032560;28;20428;-42
2023/04/26 08:03:26;;;;;;;4.53;3.53;;;;;;;;;;5033172;28;20481;-42
2023/04/26 08:05:53;;;;;;;7.63;3.53;;;;;;;;;;5020785;28;20505;-43
2023/04/26 08:08:21;;;;;;;6.50;4.70;;;;;;;;;;5013171;28;20808;-43
2023/04/26 08:10:47;;;;;;;7.10;4.37;;;;;;;;;;5013693;28;20396;-43
2023/04/26 08:13:12;;;;;;;11.30;3.87;;;;;;;;;;5013589;28;20487;-44
2023/04/26 08:15:40;;;;;;;11.90;3.77;;;;;;;;;;5013716;28;20765;-42
2023/04/26 08:18:06;;;;;;;14.53;5.40;;;;;;;;;;5013261;28;20442;-42
2023/04/26 08:20:32;;;;;;;5.07;3.63;;;;;;;;;;5013375;28;20413;-42
2023/04/26 08:22:58;;;;;;;8.20;4.30;;;;;;;;;;5011243;28;20468;-42
2023/04/26 08:25:24;;;;;;;11.87;4.10;;;;;;;;;;5021161;28;20444;-43
2023/04/26 08:27:51;;;;;;;8.37;3.87;;;;;;;;;;5022710;28;20479;-42
2023/04/26 08:30:17;;;;;;;9.80;3.73;;;;;;;;;;5021692;28;20411;-42
2023/04/26 08:32:44;;;;;;;9.77;3.67;;;;;;;;;;5021019;28;20512;-42
2023/04/26 08:35:10;;;;;;;9.17;5.07;;;;;;;;;;5010088;28;20505;-43
2023/04/26 08:37:37;;;;;;;8.90;4.13;;;;;;;;;;5014726;28;20562;-43
2023/04/26 08:40:11;;;;;;;11.37;4.50;;;;;;;;;;5024059;28;20457;-42
2023/04/26 08:42:39;;;;;;;8.73;3.90;;;;;;;;;;5021507;28;20408;-42
2023/04/26 08:45:07;;;;;;;8.30;3.50;;;;;;;;;;5013262;28;20497;-42
2023/04/26 08:47:49;;;;;;;4.60;3.30;;;;;;;;;;5017375;28;20505;-44
2023/04/26 08:50:19;;;;;;;9.87;4.27;;;;;;;;;;5014422;28;20878;-43
2023/04/26 08:52:47;;;;;;;6.07;4.47;;;;;;;;;;5015762;28;20795;-42
2023/04/26 08:55:15;;;;;;;6.40;4.50;;;;;;;;;;5020761;28;20781;-42
2023/04/26 08:57:42;;;;;;;7.33;4.03;;;;;;;;;;5029227;28;20439;-43
2023/04/26 09:00:10;;;;;;;4.40;3.70;;;;;;;;;;5031264;28;20441;-42
2023/04/26 09:02:37;;;;;;;12.10;4.97;;;;;;;;;;5032431;28;20781;-43
2023/04/26 09:05:03;;;;;;;6.53;3.40;;;;;;;;;;5032335;28;20416;-42
2023/04/26 09:07:35;;;;;;;11.20;5.57;;;;;;;;;;5012692;28;20555;-43
2023/04/26 09:10:03;;;;;;;7.90;3.57;;;;;;;;;;5012415;28;20408;-43
2023/04/26 09:12:29;;;;;;;9.47;4.13;;;;;;;;;;5012574;28;20408;-43
2023/04/26 09:14:55;;;;;;;6.47;3.50;;;;;;;;;;5012865;28;20407;-45
2023/04/26 09:17:25;;;;;;;8.17;3.77;;;;;;;;;;5012337;28;20406;-43
2023/04/26 09:19:51;;;;;;;6.70;3.83;;;;;;;;;;5012296;28;20413;-45
2023/04/26 09:22:33;;;;;;;7.63;3.80;;;;;;;;;;5012389;28;20883;-45
2023/04/26 09:25:00;;;;;;;5.63;3.70;;;;;;;;;;5012232;28;20448;-44
2023/04/26 09:27:34;;;;;;;6.53;3.07;;;;;;;;;;5012042;28;20905;-45
2023/04/26 09:30:06;;;;;;;7.60;3.60;;;;;;;;;;5012167;28;20911;-45
2023/04/26 09:32:48;;;;;;;7.70;4.00;;;;;;;;;;5012541;28;20495;-43
2023/04/26 09:35:29;;;;;;;6.13;4.03;;;;;;;;;;5017606;28;20421;-43
2023/04/26 09:38:08;;;;;;;6.17;3.10;;;;;;;;;;5010964;28;20460;-43
2023/04/26 09:40:35;;;;;;;6.70;3.73;;;;;;;;;;5011279;28;20487;-44
2023/04/26 09:43:08;;;;;;;8.93;3.70;;;;;;;;;;5012056;28;20410;-44
2023/04/26 09:45:45;;;;;;;7.27;3.13;;;;;;;;;;5012411;28;20431;-43
2023/04/26 09:48:21;;;;;;;8.07;5.27;;;;;;;;;;5011642;28;20860;-43
2023/04/26 09:50:48;;;;;;;3.90;3.17;;;;;;;;;;5012426;28;20408;-41
2023/04/26 09:53:41;;;;;;;4.80;3.23;;;;;;;;;;5012272;28;20411;-44
2023/04/26 09:56:07;;;;;;;3.93;3.47;;;;;;;;;;5012760;28;20536;-43
2023/04/26 09:58:35;;;;;;;8.37;4.20;;;;;;;;;;5011758;28;21005;-43
2023/04/26 10:01:03;;;;;;;5.17;3.70;;;;;;;;;;5012226;28;20419;-43
2023/04/26 10:03:33;;;;;;;8.27;4.53;;;;;;;;;;5013322;28;20413;-43
2023/04/26 10:05:59;;;;;;;5.50;3.77;;;;;;;;;;5012730;28;20485;-43
2023/04/26 10:08:25;;;;;;;4.50;4.03;;;;;;;;;;5011497;28;20488;-46
2023/04/26 10:10:52;;;;;;;8.93;4.00;;;;;;;;;;5013098;28;20960;-44
2023/04/26 10:13:18;;;;;;;6.40;4.60;;;;;;;;;;5012007;28;20415;-43
2023/04/26 10:15:44;;;;;;;6.67;4.83;;;;;;;;;;5011278;28;20426;-42
2023/04/26 10:18:11;;;;;;;10.23;7.03;;;;;;;;;;5011302;28;20443;-42
2023/04/26 10:20:41;;;;;;;7.47;5.13;;;;;;;;;;5014823;28;20906;-42
2023/04/26 10:23:12;;;;;;;10.87;5.33;;;;;;;;;;5015661;28;20779;-42
2023/04/26 10:25:39;;;;;;;6.63;5.00;;;;;;;;;;5015458;28;20406;-42
2023/04/26 10:28:05;;;;;;;9.80;5.17;;;;;;;;;;5015612;28;20969;-42
2023/04/26 10:30:31;;;;;;;6.60;4.30;;;;;;;;;;5014736;28;20888;-41
2023/04/26 10:32:57;;;;;;;9.00;4.87;;;;;;;;;;5017068;28;20997;-45
2023/04/26 10:35:28;;;;;;;5.87;3.97;;;;;;;;;;5011465;28;20503;-42
2023/04/26 10:37:59;;;;;;;10.73;4.57;;;;;;;;;;5006863;28;20446;-42
2023/04/26 10:40:31;;;;;;;8.87;4.30;;;;;;;;;;5006974;28;20411;-42
2023/04/26 10:43:17;;;;;;;6.83;4.60;;;;;;;;;;5006815;28;20486;-44
2023/04/26 10:45:43;;;;;;;10.33;5.50;;;;;;;;;;5001445;28;20380;-42
2023/04/26 10:48:16;;;;;;;12.30;6.23;;;;;;;;;;5004212;28;20432;-41
2023/04/26 10:51:00;;;;;;;6.97;5.37;;;;;;;;;;5008216;28;20407;-42
2023/04/26 10:53:30;;;;;;;12.70;5.20;;;;;;;;;;5013000;28;20892;-42
2023/04/26 10:55:56;;;;;;;8.07;5.20;;;;;;;;;;5015084;28;20951;-44
2023/04/26 10:58:29;;;;;;;5.53;4.33;;;;;;;;;;5014731;28;20431;-44
2023/04/26 11:01:05;;;;;;;8.10;5.57;;;;;;;;;;5014906;28;20410;-41
2023/04/26 11:03:31;;;;;;;6.43;5.07;;;;;;;;;;5015214;28;20471;-43
2023/04/26 11:05:59;;;;;;;7.07;5.07;;;;;;;;;;5011860;28;20970;-43
2023/04/26 11:08:25;;;;;;;13.17;7.60;;;;;;;;;;5004068;28;20480;-42
2023/04/26 11:10:56;;;;;;;11.63;6.10;;;;;;;;;;5003525;28;20483;-43
2023/04/26 11:13:22;;;;;;;10.00;5.20;;;;;;;;;;5005343;28;20812;-43
2023/04/26 11:15:52;;;;;;;9.43;6.67;;;;;;;;;;5005591;28;20490;-44
2023/04/26 11:18:19;;;;;;;12.83;6.60;;;;;;;;;;5009598;28;20554;-44
2023/04/26 11:20:46;;;;;;;14.03;5.67;;;;;;;;;;5015322;28;20411;-44
2023/04/26 11:23:12;;;;;;;10.87;6.43;;;;;;;;;;5014354;28;20431;-44
2023/04/26 11:25:41;;;;;;;7.40;5.40;;;;;;;;;;5013436;28;20439;-44
2023/04/26 11:28:07;;;;;;;16.60;8.17;;;;;;;;;;5013690;28;20430;-44
2023/04/26 11:30:33;;;;;;;7.00;5.00;;;;;;;;;;5013193;28;20465;-43
2023/04/26 11:32:59;;;;;;;11.10;6.63;;;;;;;;;;5013645;28;20927;-43
2023/04/26 11:35:26;;;;;;;8.67;5.00;;;;;;;;;;5015304;28;20400;-42
2023/04/26 11:37:52;;;;;;;10.10;5.70;;;;;;;;;;5012556;28;20453;-41
2023/04/26 11:40:18;;;;;;;10.20;4.70;;;;;;;;;;5013255;28;20427;-41
2023/04/26 11:42:44;;;;;;;6.80;5.13;;;;;;;;;;5014357;28;20845;-44
2023/04/26 11:45:11;;;;;;;5.43;4.07;;;;;;;;;;5014861;28;20959;-43
2023/04/26 11:47:37;;;;;;;10.60;5.20;;;;;;;;;;5013150;28;20987;-45
2023/04/26 11:50:04;;;;;;;6.47;4.73;;;;;;;;;;5015321;28;20435;-41
2023/04/26 11:52:30;;;;;;;8.13;5.23;;;;;;;;;;5013831;28;20422;-40
2023/04/26 11:55:05;;;;;;;10.33;4.13;;;;;;;;;;5015026;28;20853;-43
2023/04/26 11:57:32;;;;;;;9.90;5.40;;;;;;;;;;5013938;28;20494;-45
2023/04/26 12:00:14;;;;;;;8.40;4.80;;;;;;;;;;5013345;28;20760;-44
2023/04/26 12:02:45;;;;;;;6.70;4.70;;;;;;;;;;5013702;28;20856;-43
2023/04/26 12:05:11;;;;;;;9.07;4.70;;;;;;;;;;5013764;28;20859;-45
2023/04/26 12:07:37;;;;;;;7.40;4.50;;;;;;;;;;5011840;28;20467;-43
2023/04/26 12:10:16;;;;;;;4.53;4.10;;;;;;;;;;5013404;28;20522;-44
2023/04/26 12:12:49;;;;;;;5.10;4.60;;;;;;;;;;5013649;28;20405;-43
2023/04/26 12:15:16;;;;;;;6.73;4.20;;;;;;;;;;5013642;28;20428;-44
2023/04/26 12:17:51;;;;;;;7.47;4.13;;;;;;;;;;5013263;28;20505;-44
2023/04/26 12:20:17;;;;;;;9.63;5.17;;;;;;;;;;5013359;28;20394;-45
2023/04/26 12:22:59;;;;;;;8.53;4.43;;;;;;;;;;5013668;28;20416;-43
2023/04/26 12:25:25;;;;;;;7.37;4.70;;;;;;;;;;5013379;28;20396;-43
2023/04/26 12:27:51;;;;;;;9.83;6.60;;;;;;;;;;5012087;28;20523;-43
2023/04/26 12:30:18;;;;;;;11.50;4.47;;;;;;;;;;5013193;28;20427;-44
2023/04/26 12:32:44;;;;;;;8.60;5.47;;;;;;;;;;5013116;28;20396;-44
2023/04/26 12:35:10;;;;;;;9.13;4.30;;;;;;;;;;5013187;28;20961;-43
2023/04/26 12:37:36;;;;;;;6.77;4.90;;;;;;;;;;5013015;28;20895;-43
2023/04/26 12:40:02;;;;;;;5.30;4.50;;;;;;;;;;5012091;28;20433;-44
2023/04/26 12:42:28;;;;;;;10.60;4.57;;;;;;;;;;5012711;28;20411;-43
2023/04/26 12:44:54;;;;;;;13.23;4.40;;;;;;;;;;5013051;28;20951;-43
2023/04/26 12:47:20;;;;;;;6.67;4.67;;;;;;;;;;5011861;28;20463;-44
2023/04/26 12:49:46;;;;;;;11.27;6.37;;;;;;;;;;5012598;28;20430;-44
2023/04/26 12:52:12;;;;;;;9.13;5.50;;;;;;;;;;5012896;28;20407;-43
2023/04/26 12:54:38;;;;;;;5.10;4.03;;;;;;;;;;5012909;28;20444;-45
2023/04/26 12:57:05;;;;;;;5.87;5.17;;;;;;;;;;5012695;28;20413;-46
2023/04/26 12:59:31;;;;;;;7.20;4.40;;;;;;;;;;5012524;28;20437;-44
2023/04/26 13:01:57;;;;;;;9.60;5.30;;;;;;;;;;5012529;28;20467;-45
2023/04/26 13:04:23;;;;;;;5.80;3.90;;;;;;;;;;5010968;28;20437;-44
2023/04/26 13:06:49;;;;;;;8.83;4.80;;;;;;;;;;5012558;28;20471;-45
2023/04/26 13:09:15;;;;;;;10.67;4.17;;;;;;;;;;5012347;28;20432;-43
2023/04/26 13:11:41;;;;;;;11.33;5.13;;;;;;;;;;5012639;28;20400;-45
2023/04/26 13:14:07;;;;;;;8.67;4.57;;;;;;;;;;5012642;28;20401;-43
2023/04/26 13:16:33;;;;;;;4.50;4.00;;;;;;;;;;5012409;28;20409;-43
2023/04/26 13:18:59;;;;;;;7.37;5.30;;;;;;;;;;5009394;28;20483;-45
2023/04/26 13:21:25;;;;;;;4.77;3.80;;;;;;;;;;5012453;28;20438;-44
2023/04/26 13:23:51;;;;;;;6.77;4.67;;;;;;;;;;5012462;28;20909;-45
2023/04/26 13:26:17;;;;;;;8.83;4.13;;;;;;;;;;5012361;28;20843;-45
2023/04/26 13:28:43;;;;;;;4.17;3.80;;;;;;;;;;5011981;28;20818;-45
2023/04/26 13:31:10;;;;;;;6.80;4.27;;;;;;;;;;5012185;28;20374;-45
2023/04/26 13:33:36;;;;;;;6.87;4.40;;;;;;;;;;5012238;28;20493;-45
2023/04/26 13:36:02;;;;;;;4.17;3.80;;;;;;;;;;5012450;28;20435;-45
2023/04/26 13:38:28;;;;;;;5.03;4.53;;;;;;;;;;5011914;28;20430;-44
2023/04/26 13:40:54;;;;;;;6.23;4.53;;;;;;;;;;5012235;28;20414;-45
2023/04/26 13:43:20;;;;;;;6.00;4.27;;;;;;;;;;5012091;28;20501;-46
2023/04/26 13:45:46;;;;;;;5.50;4.90;;;;;;;;;;5010966;28;20496;-45
2023/04/26 13:48:13;;;;;;;8.23;5.23;;;;;;;;;;5011783;28;20419;-45
2023/04/26 13:50:39;;;;;;;4.93;4.43;;;;;;;;;;5012204;28;20417;-45
2023/04/26 13:53:05;;;;;;;8.07;4.50;;;;;;;;;;5012041;28;20424;-47
2023/04/26 13:55:32;;;;;;;6.07;4.40;;;;;;;;;;5011625;28;20378;-45
2023/04/26 13:57:58;;;;;;;7.83;4.47;;;;;;;;;;5011784;28;20433;-44
2023/04/26 14:00:24;;;;;;;5.77;3.93;;;;;;;;;;5011719;28;20382;-46
2023/04/26 14:02:50;;;;;;;9.00;4.63;;;;;;;;;;5011939;28;20381;-47
2023/04/26 14:05:16;;;;;;;8.00;4.30;;;;;;;;;;5012205;28;20903;-47
2023/04/26 14:07:43;;;;;;;5.00;4.47;;;;;;;;;;5011803;28;20435;-44
2023/04/26 14:10:10;;;;;;;7.17;4.77;;;;;;;;;;5010443;28;20750;-44
2023/04/26 14:12:36;;;;;;;5.43;4.40;;;;;;;;;;5010465;28;20400;-45
2023/04/26 14:15:04;;;;;;;8.90;4.17;;;;;;;;;;5011907;28;20532;-46
2023/04/26 14:17:31;;;;;;;8.70;3.77;;;;;;;;;;5011771;28;20408;-45
2023/04/26 14:19:57;;;;;;;6.20;4.10;;;;;;;;;;5011636;28;20411;-46
2023/04/26 14:22:23;;;;;;;6.53;4.37;;;;;;;;;;5011864;28;20493;-46
2023/04/26 14:24:49;;;;;;;4.90;3.80;;;;;;;;;;5008125;28;20931;-46
2023/04/26 14:27:15;;;;;;;9.03;4.07;;;;;;;;;;5011534;28;20462;-44
2023/04/26 14:29:42;;;;;;;6.07;4.30;;;;;;;;;;5011661;28;20426;-44
2023/04/26 14:32:08;;;;;;;5.87;4.10;;;;;;;;;;5012236;28;20396;-45
2023/04/26 14:34:38;;;;;;;7.10;4.33;;;;;;;;;;5011828;28;20425;-45